createdAt,value
2018-07-22T00:00:14.878Z,19.07
2018-07-22T00:02:43.429Z,18.93
2018-07-22T00:05:11.913Z,17.20
2018-07-22T00:07:40.422Z,18.40
2018-07-22T00:10:12.701Z,18.73
2018-07-22T00:12:41.156Z,18.40
2018-07-22T00:15:09.718Z,19.43
2018-07-22T00:17:38.242Z,18.77
2018-07-22T00:20:06.792Z,17.83
2018-07-22T00:22:35.269Z,17.43
2018-07-22T00:25:03.787Z,17.97
2018-07-22T00:27:32.246Z,17.80
2018-07-22T00:30:00.750Z,18.33
2018-07-22T00:32:29.295Z,18.37
2018-07-22T00:34:57.749Z,18.83
2018-07-22T00:37:26.262Z,17.40
2018-07-22T00:39:54.788Z,18.03
2018-07-22T00:42:23.318Z,17.50
2018-07-22T00:44:51.868Z,17.40
2018-07-22T00:47:20.379Z,18.23
2018-07-22T00:49:49.044Z,17.37
2018-07-22T00:52:17.636Z,17.53
2018-07-22T00:54:46.109Z,17.37
2018-07-22T00:57:14.683Z,17.17
2018-07-22T00:59:43.158Z,17.20
2018-07-22T01:02:11.820Z,17.37
2018-07-22T01:04:40.285Z,17.13
2018-07-22T01:07:08.780Z,17.83
2018-07-22T01:09:37.347Z,17.87
2018-07-22T01:12:05.804Z,17.87
2018-07-22T01:14:34.263Z,16.30
2018-07-22T01:17:02.725Z,17.10
2018-07-22T01:19:31.280Z,15.70
2018-07-22T01:21:59.796Z,16.00
2018-07-22T01:24:28.313Z,15.07
2018-07-22T01:26:56.922Z,14.57
2018-07-22T01:29:25.545Z,14.67
2018-07-22T01:31:54.095Z,14.37
2018-07-22T01:34:22.601Z,13.40
2018-07-22T01:36:51.112Z,13.03
2018-07-22T01:39:19.635Z,13.27
2018-07-22T01:41:48.153Z,12.80
2018-07-22T01:44:16.625Z,12.87
2018-07-22T01:46:45.140Z,12.23
2018-07-22T01:49:13.688Z,12.10
2018-07-22T01:51:42.236Z,11.63
2018-07-22T01:54:10.699Z,12.60
2018-07-22T01:56:39.254Z,11.93
2018-07-22T01:59:07.706Z,11.70
2018-07-22T02:01:36.340Z,11.37
2018-07-22T02:04:05.458Z,13.20
2018-07-22T02:06:33.937Z,12.60
2018-07-22T02:09:10.056Z,12.57
2018-07-22T02:11:38.566Z,11.90
2018-07-22T02:14:07.131Z,12.17
2018-07-22T02:16:35.671Z,12.00
2018-07-22T02:19:04.264Z,11.77
2018-07-22T02:21:32.759Z,12.43
2018-07-22T02:24:01.212Z,10.83
2018-07-22T02:26:29.802Z,11.80
2018-07-22T02:28:58.351Z,11.93
2018-07-22T02:31:26.885Z,11.40
2018-07-22T02:33:55.433Z,11.47
2018-07-22T02:36:23.917Z,11.20
2018-07-22T02:38:52.567Z,10.97
2018-07-22T02:41:21.055Z,11.47
2018-07-22T02:43:49.604Z,10.80
2018-07-22T02:46:18.155Z,10.43
2018-07-22T02:48:46.695Z,11.10
2018-07-22T02:51:15.205Z,10.50
2018-07-22T02:53:43.762Z,10.93
2018-07-22T02:56:12.335Z,10.37
2018-07-22T02:58:40.848Z,10.03
2018-07-22T03:01:09.327Z,10.80
2018-07-22T03:03:37.900Z,11.30
2018-07-22T03:06:06.513Z,11.07
2018-07-22T03:08:35.076Z,10.73
2018-07-22T03:11:03.644Z,10.33
2018-07-22T03:13:32.182Z,11.30
2018-07-22T03:16:00.679Z,12.23
2018-07-22T03:18:29.249Z,11.73
2018-07-22T03:20:57.737Z,12.37
2018-07-22T03:23:26.281Z,12.13
2018-07-22T03:25:54.769Z,11.30
2018-07-22T03:28:23.301Z,10.70
2018-07-22T03:30:51.769Z,11.70
2018-07-22T03:33:20.317Z,11.17
2018-07-22T03:35:49.100Z,10.83
2018-07-22T03:38:17.620Z,11.80
2018-07-22T03:40:46.144Z,11.43
2018-07-22T03:43:14.682Z,11.47
2018-07-22T03:45:43.166Z,11.33
2018-07-22T03:48:12.598Z,11.40
2018-07-22T03:50:41.080Z,10.93
2018-07-22T03:53:09.540Z,12.03
2018-07-22T03:55:38.002Z,11.10
2018-07-22T03:58:06.508Z,12.17
2018-07-22T04:00:35.113Z,11.40
2018-07-22T04:03:03.584Z,11.20
2018-07-22T04:05:32.121Z,11.70
2018-07-22T04:08:00.690Z,11.83
2018-07-22T04:10:29.220Z,12.63
2018-07-22T04:12:57.874Z,11.37
2018-07-22T04:15:26.569Z,12.07
2018-07-22T04:17:55.057Z,11.20
2018-07-22T04:20:23.517Z,11.70
2018-07-22T04:22:52.041Z,11.50
2018-07-22T04:25:20.612Z,12.83
2018-07-22T04:27:49.059Z,11.77
2018-07-22T04:30:17.592Z,12.03
2018-07-22T04:32:46.123Z,11.57
2018-07-22T04:35:14.662Z,11.80
2018-07-22T04:37:43.122Z,13.03
2018-07-22T04:40:11.734Z,13.07
2018-07-22T04:42:40.225Z,13.00
2018-07-22T04:45:09.034Z,12.90
2018-07-22T04:47:37.564Z,14.17
2018-07-22T04:50:06.075Z,12.23
2018-07-22T04:52:34.622Z,12.00
2018-07-22T04:55:03.172Z,11.17
2018-07-22T04:57:31.395Z,11.77
2018-07-22T04:59:59.633Z,11.20
2018-07-22T05:02:27.891Z,11.77
2018-07-22T05:04:56.162Z,12.23
2018-07-22T05:07:24.417Z,11.83
2018-07-22T05:09:52.678Z,11.50
2018-07-22T05:12:20.905Z,11.43
2018-07-22T05:14:49.119Z,11.93
2018-07-22T05:17:17.377Z,11.53
2018-07-22T05:19:45.680Z,11.53
2018-07-22T05:22:13.903Z,11.50
2018-07-22T05:24:42.162Z,11.73
2018-07-22T05:27:10.412Z,11.60
2018-07-22T05:29:38.675Z,10.67
2018-07-22T05:32:06.907Z,11.00
2018-07-22T05:34:35.179Z,10.77
2018-07-22T05:37:03.437Z,9.97
2018-07-22T05:39:31.688Z,9.00
2018-07-22T05:41:59.976Z,9.63
2018-07-22T05:44:28.211Z,9.43
2018-07-22T05:46:56.478Z,7.93
2018-07-22T05:49:24.716Z,8.73
2018-07-22T05:51:52.967Z,8.97
2018-07-22T05:54:21.197Z,9.00
2018-07-22T05:56:49.421Z,8.20
2018-07-22T05:59:17.679Z,8.27
2018-07-22T06:01:45.927Z,8.73
2018-07-22T06:04:14.184Z,8.87
2018-07-22T06:06:42.396Z,8.77
2018-07-22T06:09:11.481Z,8.60
2018-07-22T06:11:39.795Z,8.63
2018-07-22T06:14:08.375Z,9.43
2018-07-22T06:16:36.671Z,8.73
2018-07-22T06:19:04.910Z,8.37
2018-07-22T06:21:33.182Z,8.17
2018-07-22T06:24:01.470Z,8.07
2018-07-22T06:26:29.720Z,8.13
2018-07-22T06:28:57.988Z,7.53
2018-07-22T06:31:26.332Z,7.27
2018-07-22T06:33:54.579Z,7.10
2018-07-22T06:36:22.850Z,6.60
2018-07-22T06:38:51.104Z,6.87
2018-07-22T06:41:19.374Z,7.33
2018-07-22T06:43:47.621Z,7.77
2018-07-22T06:46:15.911Z,7.17
2018-07-22T06:48:44.182Z,7.40
2018-07-22T06:51:12.442Z,6.97
2018-07-22T06:53:40.708Z,6.60
2018-07-22T06:56:08.988Z,7.10
2018-07-22T06:58:37.234Z,6.93
2018-07-22T07:01:05.505Z,6.90
2018-07-22T07:03:33.752Z,6.97
2018-07-22T07:06:01.991Z,7.17
2018-07-22T07:08:30.355Z,6.93
2018-07-22T07:10:58.601Z,6.47
2018-07-22T07:13:33.368Z,6.43
2018-07-22T07:16:01.631Z,7.07
2018-07-22T07:18:29.878Z,6.57
2018-07-22T07:20:58.105Z,6.13
2018-07-22T07:23:26.360Z,7.07
2018-07-22T07:28:28.726Z,6.63
2018-07-22T07:30:57.253Z,6.50
2018-07-22T07:33:25.730Z,6.50
2018-07-22T07:35:54.325Z,7.07
2018-07-22T07:38:22.824Z,6.90
2018-07-22T07:40:51.381Z,7.70
2018-07-22T07:43:19.979Z,6.80
2018-07-22T07:45:48.469Z,6.70
2018-07-22T07:48:16.996Z,6.33
2018-07-22T07:50:45.544Z,7.33
2018-07-22T07:53:14.235Z,6.47
2018-07-22T07:55:42.822Z,6.60
2018-07-22T07:58:11.384Z,7.13
2018-07-22T08:00:39.997Z,5.80
2018-07-22T08:03:08.868Z,7.23
2018-07-22T08:05:37.317Z,6.40
2018-07-22T08:08:05.867Z,6.73
2018-07-22T08:10:34.529Z,6.47
2018-07-22T08:13:03.450Z,6.20
2018-07-22T08:15:31.973Z,7.27
2018-07-22T08:18:00.495Z,6.90
2018-07-22T08:20:28.980Z,6.60
2018-07-22T08:22:57.680Z,6.70
2018-07-22T08:25:26.265Z,6.43
2018-07-22T08:27:54.948Z,6.10
2018-07-22T08:30:23.469Z,6.83
2018-07-22T08:32:51.950Z,5.90
2018-07-22T08:35:20.599Z,5.47
2018-07-22T08:37:49.227Z,6.03
2018-07-22T08:40:18.021Z,5.80
2018-07-22T08:42:46.505Z,6.90
2018-07-22T08:45:14.989Z,5.47
2018-07-22T08:47:43.641Z,5.70
2018-07-22T08:50:12.244Z,5.70
2018-07-22T08:52:40.735Z,6.20
2018-07-22T08:55:09.315Z,5.60
2018-07-22T08:57:37.803Z,5.60
2018-07-22T09:00:06.914Z,5.77
2018-07-22T09:02:35.384Z,5.97
2018-07-22T09:05:04.107Z,5.87
2018-07-22T09:07:32.592Z,5.80
2018-07-22T09:10:01.077Z,5.63
2018-07-22T09:12:29.636Z,6.57
2018-07-22T09:14:58.230Z,5.30
2018-07-22T09:17:26.710Z,6.03
2018-07-22T09:19:55.197Z,5.63
2018-07-22T09:22:23.890Z,5.97
2018-07-22T09:24:52.605Z,8.10
2018-07-22T09:27:21.090Z,5.53
2018-07-22T09:29:49.649Z,9.00
2018-07-22T09:32:18.164Z,6.10
2018-07-22T09:34:46.752Z,5.80
2018-07-22T09:37:15.209Z,6.00
2018-07-22T09:39:43.901Z,6.33
2018-07-22T09:42:12.487Z,5.83
2018-07-22T09:44:41.207Z,6.80
2018-07-22T09:47:09.869Z,6.70
2018-07-22T09:49:38.362Z,7.60
2018-07-22T09:52:07.073Z,7.20
2018-07-22T09:54:35.557Z,6.90
2018-07-22T09:57:04.045Z,6.77
2018-07-22T09:59:32.805Z,7.93
2018-07-22T10:02:01.322Z,7.60
2018-07-22T10:04:29.792Z,6.90
2018-07-22T10:06:58.264Z,8.07
2018-07-22T10:09:26.782Z,7.60
2018-07-22T10:11:55.440Z,7.07
2018-07-22T10:14:24.074Z,7.27
2018-07-22T10:16:52.748Z,7.47
2018-07-22T10:19:21.513Z,7.47
2018-07-22T10:21:50.129Z,6.60
2018-07-22T10:24:18.817Z,6.20
2018-07-22T10:26:47.304Z,6.63
2018-07-22T10:29:16.199Z,6.47
2018-07-22T10:31:44.964Z,6.77
2018-07-22T10:34:13.579Z,6.27
2018-07-22T10:36:42.552Z,6.90
2018-07-22T10:39:12.088Z,5.90
2018-07-22T10:41:41.404Z,6.67
2018-07-22T10:44:10.370Z,5.92
2018-07-22T10:46:38.977Z,6.08
2018-07-22T10:49:07.461Z,7.50
2018-07-22T10:51:36.048Z,6.30
2018-07-22T10:54:04.641Z,6.58
2018-07-22T10:56:33.299Z,6.45
2018-07-22T10:59:01.915Z,7.03
2018-07-22T11:01:30.401Z,8.95
2018-07-22T11:03:59.195Z,6.62
2018-07-22T11:06:27.985Z,5.92
2018-07-22T11:08:56.701Z,6.58
2018-07-22T11:11:25.367Z,6.03
2018-07-22T11:13:54.131Z,6.20
2018-07-22T11:16:22.748Z,5.78
2018-07-22T11:18:51.232Z,5.72
2018-07-22T11:21:19.776Z,14.40
2018-07-22T11:23:48.305Z,17.45
2018-07-22T11:26:16.964Z,34.27
2018-07-22T11:28:45.635Z,6.00
2018-07-22T11:31:14.143Z,12.68
2018-07-22T11:33:42.632Z,7.08
2018-07-22T11:36:11.480Z,27.87
2018-07-22T11:38:39.936Z,6.15
2018-07-22T11:41:08.626Z,6.53
2018-07-22T11:43:37.389Z,7.35
2018-07-22T11:46:05.876Z,6.65
2018-07-22T11:48:34.491Z,9.08
2018-07-22T11:51:03.156Z,6.20
2018-07-22T11:53:31.845Z,6.30
2018-07-22T11:56:00.571Z,6.00
2018-07-22T11:58:28.996Z,7.25
2018-07-22T12:00:57.432Z,6.22
2018-07-22T12:03:25.888Z,6.47
2018-07-22T12:05:54.563Z,5.53
2018-07-22T12:08:23.094Z,6.35
2018-07-22T12:10:52.266Z,6.05
2018-07-22T12:13:21.329Z,6.20
2018-07-22T12:15:50.568Z,6.08
2018-07-22T12:18:19.893Z,6.53
2018-07-22T12:20:49.265Z,6.55
2018-07-22T12:26:03.908Z,6.58
2018-07-22T12:28:32.781Z,6.30
2018-07-22T12:31:01.351Z,6.20
2018-07-22T12:33:29.834Z,6.70
2018-07-22T12:35:58.319Z,6.47
2018-07-22T12:38:26.776Z,6.42
2018-07-22T12:40:55.469Z,6.22
2018-07-22T12:43:24.024Z,6.45
2018-07-22T12:45:52.567Z,6.33
2018-07-22T12:48:21.054Z,6.15
2018-07-22T12:50:49.816Z,6.42
2018-07-22T12:53:18.334Z,6.80
2018-07-22T12:55:46.820Z,6.30
2018-07-22T12:58:15.300Z,6.72
2018-07-22T13:00:44.093Z,5.75
2018-07-22T13:03:12.546Z,6.00
2018-07-22T13:05:41.030Z,5.87
2018-07-22T13:08:09.520Z,6.05
2018-07-22T13:10:38.042Z,6.03
2018-07-22T13:13:06.752Z,5.95
2018-07-22T13:15:35.387Z,5.95
2018-07-22T13:18:03.976Z,6.08
2018-07-22T13:20:32.492Z,6.08
2018-07-22T13:23:01.521Z,6.45
2018-07-22T13:25:30.149Z,6.47
2018-07-22T13:27:58.637Z,6.00
2018-07-22T13:30:27.252Z,6.55
2018-07-22T13:32:55.811Z,6.45
2018-07-22T13:35:24.329Z,6.67
2018-07-22T13:37:52.811Z,5.95
2018-07-22T13:40:21.501Z,6.90
2018-07-22T13:42:49.987Z,6.30
2018-07-22T13:45:18.594Z,6.35
2018-07-22T13:47:47.162Z,6.15
2018-07-22T13:50:16.119Z,6.65
2018-07-22T13:52:57.093Z,6.50
2018-07-22T13:55:26.044Z,6.33
2018-07-22T13:57:55.166Z,7.10
2018-07-22T14:00:24.230Z,6.60
2018-07-22T14:02:53.792Z,6.33
2018-07-22T14:05:23.116Z,6.40
2018-07-22T14:07:52.228Z,6.95
2018-07-22T14:10:21.348Z,6.45
2018-07-22T14:12:50.401Z,6.33
2018-07-22T14:15:19.973Z,6.67
2018-07-22T14:17:49.663Z,7.00
2018-07-22T14:20:18.968Z,6.72
2018-07-22T14:22:47.903Z,6.95
2018-07-22T14:25:30.818Z,7.40
2018-07-22T14:27:59.721Z,6.70
2018-07-22T14:30:28.992Z,6.40
2018-07-22T14:32:58.163Z,6.95
2018-07-22T14:35:27.117Z,6.50
2018-07-22T14:37:56.235Z,6.92
2018-07-22T14:40:25.179Z,6.42
2018-07-22T14:42:54.170Z,6.95
2018-07-22T14:45:23.107Z,7.15
2018-07-22T14:47:51.857Z,7.22
2018-07-22T14:50:20.635Z,6.17
2018-07-22T14:52:49.623Z,6.92
2018-07-22T14:55:18.649Z,6.92
2018-07-22T14:57:47.787Z,6.60
2018-07-22T15:00:17.368Z,7.40
2018-07-22T15:02:46.049Z,7.20
2018-07-22T15:05:14.476Z,7.40
2018-07-22T15:07:43.884Z,7.20
2018-07-22T15:10:12.396Z,7.07
2018-07-22T15:12:40.832Z,7.43
2018-07-22T15:15:09.309Z,7.80
2018-07-22T15:17:37.728Z,7.17
2018-07-22T15:20:06.629Z,7.57
2018-07-22T15:22:35.158Z,7.43
2018-07-22T15:25:04.094Z,7.13
2018-07-22T15:27:33.440Z,7.43
2018-07-22T15:30:02.124Z,6.93
2018-07-22T15:32:30.559Z,6.93
2018-07-22T15:34:59.064Z,7.10
2018-07-22T15:37:27.520Z,6.80
2018-07-22T15:39:55.936Z,7.20
2018-07-22T15:42:24.421Z,6.70
2018-07-22T15:44:54.219Z,7.47
2018-07-22T16:01:15.396Z,7.40
2018-07-22T16:03:45.123Z,6.90
2018-07-22T16:06:14.891Z,6.87
2018-07-22T16:08:44.089Z,6.87
2018-07-22T16:11:26.965Z,6.60
2018-07-22T16:13:59.065Z,6.57
2018-07-22T16:16:29.080Z,6.87
2018-07-22T16:18:58.015Z,6.60
2018-07-22T16:21:29.463Z,6.55
2018-07-22T16:23:58.918Z,6.80
2018-07-22T16:26:31.237Z,7.10
2018-07-22T16:29:00.173Z,6.53
2018-07-22T16:42:51.226Z,7.07
2018-07-22T16:45:20.227Z,6.57
2018-07-22T16:47:49.621Z,6.67
2018-07-22T16:50:19.341Z,6.77
2018-07-22T16:52:49.006Z,6.83
2018-07-22T16:58:04.648Z,6.20
2018-07-22T17:00:33.221Z,6.97
2018-07-22T17:03:01.740Z,7.23
2018-07-22T17:05:30.229Z,7.30
2018-07-22T17:07:58.706Z,7.87
2018-07-22T17:10:27.204Z,7.83
2018-07-22T17:12:55.696Z,7.70
2018-07-22T17:15:24.126Z,7.93
2018-07-22T17:17:52.573Z,7.50
2018-07-22T17:20:21.036Z,7.77
2018-07-22T17:22:49.564Z,7.17
2018-07-22T17:25:18.036Z,7.77
2018-07-22T17:27:46.456Z,7.57
2018-07-22T17:30:14.988Z,7.10
2018-07-22T17:32:43.436Z,6.93
2018-07-22T17:35:11.932Z,7.33
2018-07-22T17:40:27.095Z,7.50
2018-07-22T17:42:56.008Z,7.57
2018-07-22T17:45:25.424Z,7.50
2018-07-22T17:47:54.053Z,8.00
2018-07-22T17:50:22.533Z,8.23
2018-07-22T17:52:51.042Z,7.50
2018-07-22T17:55:19.636Z,7.83
2018-07-22T17:57:48.075Z,8.80
2018-07-22T18:00:16.605Z,7.60
2018-07-22T18:02:46.019Z,8.63
2018-07-22T18:05:14.453Z,8.73
2018-07-22T18:07:42.917Z,8.53
2018-07-22T18:10:11.393Z,9.17
2018-07-22T18:12:47.800Z,9.10
2018-07-22T18:15:16.259Z,8.33
2018-07-22T18:17:44.764Z,8.10
2018-07-22T18:20:13.272Z,9.53
2018-07-22T18:22:41.755Z,9.00
2018-07-22T18:25:10.180Z,8.37
2018-07-22T18:27:39.080Z,9.50
2018-07-22T18:30:07.570Z,8.30
2018-07-22T18:32:36.124Z,7.70
2018-07-22T18:35:05.095Z,9.07
2018-07-22T18:37:33.646Z,7.90
2018-07-22T18:40:02.308Z,8.37
2018-07-22T18:42:30.992Z,8.57
2018-07-22T18:44:59.469Z,8.50
2018-07-22T18:47:28.126Z,8.80
2018-07-22T18:49:56.851Z,8.40
2018-07-22T18:52:25.336Z,8.30
2018-07-22T18:54:54.372Z,9.13
2018-07-22T18:57:23.099Z,9.30
2018-07-22T18:59:51.714Z,9.17
2018-07-22T19:02:20.384Z,8.90
2018-07-22T19:04:48.992Z,8.50
2018-07-22T19:07:17.678Z,10.27
2018-07-22T19:09:46.244Z,9.77
2018-07-22T19:12:14.873Z,9.83
2018-07-22T19:14:43.728Z,10.20
2018-07-22T19:17:12.416Z,9.23
2018-07-22T19:19:41.355Z,10.40
2018-07-22T19:22:10.235Z,9.70
2018-07-22T19:24:38.807Z,10.17
2018-07-22T19:27:07.307Z,10.83
2018-07-22T19:29:35.864Z,9.87
2018-07-22T19:32:04.456Z,10.73
2018-07-22T19:34:33.057Z,10.00
2018-07-22T19:37:01.635Z,10.03
2018-07-22T19:39:30.348Z,9.63
2018-07-22T19:41:59.096Z,9.93
2018-07-22T19:44:27.700Z,10.07
2018-07-22T19:46:56.212Z,10.13
2018-07-22T19:49:25.108Z,11.10
2018-07-22T19:51:53.673Z,11.17
2018-07-22T19:54:22.360Z,10.93
2018-07-22T19:56:51.583Z,10.73
2018-07-22T19:59:20.455Z,10.87
2018-07-22T20:01:49.071Z,11.13
2018-07-22T20:04:17.631Z,11.60
2018-07-22T20:06:46.240Z,10.87
2018-07-22T20:09:14.908Z,10.30
2018-07-22T20:11:44.016Z,11.33
2018-07-22T20:14:12.595Z,10.30
2018-07-22T20:16:41.131Z,10.80
2018-07-22T20:19:09.772Z,10.63
2018-07-22T20:21:38.286Z,10.10
2018-07-22T20:24:06.941Z,10.10
2018-07-22T20:26:35.431Z,10.33
2018-07-22T20:29:04.127Z,10.30
2018-07-22T20:31:32.743Z,10.90
2018-07-22T20:34:01.201Z,11.30
2018-07-22T20:36:29.684Z,10.70
2018-07-22T20:38:58.234Z,11.23
2018-07-22T20:41:27.092Z,10.47
2018-07-22T20:43:55.578Z,9.97
2018-07-22T20:46:24.166Z,10.43
2018-07-22T20:48:52.652Z,10.77
2018-07-22T20:51:21.435Z,10.03
2018-07-22T20:53:49.931Z,10.10
2018-07-22T20:56:18.640Z,9.57
2018-07-22T20:58:47.075Z,9.70
2018-07-22T21:01:15.667Z,10.57
2018-07-22T21:03:44.179Z,9.90
2018-07-22T21:06:12.667Z,9.40
2018-07-22T21:08:41.264Z,10.33
2018-07-22T21:11:09.916Z,10.33
2018-07-22T21:13:38.429Z,11.03
2018-07-22T21:16:07.100Z,10.57
2018-07-22T21:18:35.708Z,11.07
2018-07-22T21:21:04.235Z,10.83
2018-07-22T21:23:32.856Z,11.13
2018-07-22T21:26:01.575Z,10.30
2018-07-22T21:28:30.239Z,10.13
2018-07-22T21:30:58.955Z,10.20
2018-07-22T21:33:27.957Z,10.00
2018-07-22T21:35:56.438Z,10.90
2018-07-22T21:38:25.335Z,10.77
2018-07-22T21:40:53.752Z,10.10
2018-07-22T21:43:23.035Z,9.47
2018-07-22T21:45:51.686Z,9.90
2018-07-22T21:48:20.272Z,10.13
2018-07-22T21:50:48.864Z,9.43
2018-07-22T21:53:17.448Z,10.27
2018-07-22T21:55:46.165Z,9.10
2018-07-22T21:58:14.931Z,9.70
2018-07-22T22:00:43.546Z,9.90
2018-07-22T22:03:12.108Z,9.13
2018-07-22T22:05:40.593Z,9.60
2018-07-22T22:08:09.914Z,9.80
2018-07-22T22:10:38.616Z,10.43
2018-07-22T22:13:07.100Z,9.67
2018-07-22T22:15:35.764Z,10.27
2018-07-22T22:18:05.387Z,10.73
2018-07-22T22:20:35.080Z,10.20
2018-07-22T22:23:04.392Z,9.27
2018-07-22T22:25:32.906Z,10.33
2018-07-22T22:28:01.598Z,10.07
2018-07-22T22:30:30.083Z,9.73
2018-07-22T22:32:58.854Z,10.27
2018-07-22T22:35:27.435Z,10.17
2018-07-22T22:37:56.051Z,9.80
2018-07-22T22:40:24.736Z,9.37
2018-07-22T22:42:53.329Z,9.90
2018-07-22T22:45:22.275Z,9.57
2018-07-22T22:47:50.786Z,10.20
2018-07-22T22:50:19.330Z,10.43
2018-07-22T22:52:47.874Z,10.23
2018-07-22T22:55:16.475Z,10.10
2018-07-22T22:57:50.267Z,9.80
2018-07-22T23:00:18.818Z,9.90
2018-07-22T23:02:47.285Z,9.33
2018-07-22T23:05:15.843Z,10.00
2018-07-22T23:07:44.355Z,10.20
2018-07-22T23:10:12.851Z,10.03
2018-07-22T23:12:41.348Z,10.03
2018-07-22T23:15:09.949Z,9.77
2018-07-22T23:17:38.468Z,9.97
2018-07-22T23:20:06.964Z,10.53
2018-07-22T23:22:35.505Z,10.57
2018-07-22T23:25:04.099Z,10.60
2018-07-22T23:27:32.580Z,10.97
2018-07-22T23:30:01.039Z,9.93
2018-07-22T23:32:29.552Z,10.70
2018-07-22T23:34:58.084Z,10.40
2018-07-22T23:37:26.578Z,11.07
2018-07-22T23:39:55.188Z,11.20
2018-07-22T23:42:23.928Z,11.40
2018-07-22T23:44:52.377Z,11.30
2018-07-22T23:47:21.048Z,10.40
2018-07-22T23:49:49.584Z,10.93
2018-07-22T23:52:18.065Z,10.50
2018-07-22T23:54:46.590Z,10.87
2018-07-22T23:57:15.166Z,10.50
2018-07-22T23:59:43.678Z,10.57
